createdAt,value
2018-01-02T00:00:09.202Z,0.70
2018-01-02T00:02:37.453Z,0.67
2018-01-02T00:05:04.942Z,0.60
2018-01-02T00:07:33.218Z,0.60
2018-01-02T00:10:00.701Z,0.70
2018-01-02T00:12:28.217Z,0.70
2018-01-02T00:14:56.468Z,0.80
2018-01-02T00:17:23.977Z,0.93
2018-01-02T00:19:51.466Z,1.00
2018-01-02T00:22:18.953Z,0.77
2018-01-02T00:24:46.462Z,0.80
2018-01-02T00:27:13.945Z,0.93
2018-01-02T00:29:41.458Z,0.80
2018-01-02T00:32:09.709Z,1.00
2018-01-02T00:34:37.197Z,0.80
2018-01-02T00:37:04.712Z,1.00
2018-01-02T00:39:32.203Z,1.00
2018-01-02T00:42:00.477Z,0.80
2018-01-02T00:44:28.729Z,0.83
2018-01-02T00:46:56.238Z,0.93
2018-01-02T00:49:23.725Z,0.90
2018-01-02T00:51:51.211Z,1.20
2018-01-02T00:54:18.725Z,1.00
2018-01-02T00:56:46.214Z,1.00
2018-01-02T00:59:13.722Z,1.10
2018-01-02T01:01:41.221Z,1.00
2018-01-02T01:04:08.729Z,1.10
2018-01-02T01:06:36.262Z,0.90
2018-01-02T01:09:03.750Z,0.97
2018-01-02T01:11:31.239Z,0.90
2018-01-02T01:13:58.729Z,1.00
2018-01-02T01:16:26.246Z,0.90
2018-01-02T01:18:53.733Z,0.90
2018-01-02T01:21:21.241Z,0.90
2018-01-02T01:23:48.725Z,0.80
2018-01-02T01:26:16.268Z,1.10
2018-01-02T01:28:43.739Z,0.80
2018-01-02T01:31:11.226Z,0.90
2018-01-02T01:33:38.738Z,0.80
2018-01-02T01:36:06.226Z,0.70
2018-01-02T01:38:33.738Z,0.80
2018-01-02T01:41:01.994Z,0.97
2018-01-02T01:43:29.500Z,0.80
2018-01-02T01:45:56.990Z,0.70
2018-01-02T01:48:24.473Z,0.80
2018-01-02T01:50:52.750Z,0.70
2018-01-02T01:53:21.002Z,0.70
2018-01-02T01:55:48.509Z,0.70
2018-01-02T01:58:15.997Z,0.90
2018-01-02T02:00:43.505Z,0.80
2018-01-02T02:03:11.757Z,0.60
2018-01-02T02:05:39.242Z,0.80
2018-01-02T02:08:07.518Z,0.83
2018-01-02T02:10:35.770Z,0.90
2018-01-02T02:13:03.278Z,1.00
2018-01-02T02:15:30.764Z,0.73
2018-01-02T02:17:58.285Z,0.80
2018-01-02T02:20:25.778Z,0.80
2018-01-02T02:22:53.288Z,1.00
2018-01-02T02:25:21.541Z,1.00
2018-01-02T02:27:49.025Z,1.10
2018-01-02T02:30:17.298Z,1.17
2018-01-02T02:32:45.550Z,0.90
2018-01-02T02:35:13.066Z,1.07
2018-01-02T02:37:40.552Z,1.10
2018-01-02T02:40:08.061Z,1.70
2018-01-02T02:42:35.546Z,1.20
2018-01-02T02:45:03.034Z,1.27
2018-01-02T02:47:30.547Z,1.20
2018-01-02T02:49:58.034Z,1.20
2018-01-02T02:52:25.547Z,1.30
2018-01-02T02:54:53.040Z,1.70
2018-01-02T02:57:20.554Z,1.33
2018-01-02T02:59:48.805Z,1.50
2018-01-02T03:02:16.293Z,1.20
2018-01-02T03:04:44.565Z,1.33
2018-01-02T03:07:12.821Z,1.30
2018-01-02T03:09:40.333Z,1.30
2018-01-02T03:12:07.822Z,1.60
2018-01-02T03:14:35.314Z,1.60
2018-01-02T03:17:03.593Z,1.40
2018-01-02T03:19:31.849Z,1.70
2018-01-02T03:21:59.357Z,1.60
2018-01-02T03:24:26.841Z,1.70
2018-01-02T03:26:54.354Z,1.60
2018-01-02T03:29:21.846Z,1.83
2018-01-02T03:31:50.098Z,1.80
2018-01-02T03:34:17.605Z,1.83
2018-01-02T03:36:45.094Z,1.90
2018-01-02T03:39:13.370Z,1.67
2018-01-02T03:41:41.625Z,1.57
2018-01-02T03:44:09.133Z,1.60
2018-01-02T03:46:36.626Z,1.70
2018-01-02T03:49:04.138Z,1.70
2018-01-02T03:51:31.625Z,1.87
2018-01-02T03:53:59.118Z,1.93
2018-01-02T03:56:26.630Z,1.73
2018-01-02T03:58:54.130Z,1.50
2018-01-02T04:01:21.641Z,2.00
2018-01-02T04:03:49.134Z,1.53
2018-01-02T04:06:16.646Z,1.60
2018-01-02T04:08:44.138Z,1.40
2018-01-02T04:11:11.649Z,1.53
2018-01-02T04:13:39.902Z,1.23
2018-01-02T04:16:07.391Z,1.40
2018-01-02T04:18:34.901Z,1.30
2018-01-02T04:21:02.390Z,1.30
2018-01-02T04:23:30.666Z,1.00
2018-01-02T04:25:58.926Z,1.47
2018-01-02T04:28:26.438Z,1.40
2018-01-02T04:30:53.926Z,1.20
2018-01-02T04:33:21.443Z,1.13
2018-01-02T04:35:48.943Z,1.50
2018-01-02T04:38:16.462Z,1.03
2018-01-02T04:40:43.958Z,1.30
2018-01-02T04:43:11.450Z,1.30
2018-01-02T04:45:39.730Z,1.47
2018-01-02T04:48:07.990Z,1.20
2018-01-02T04:50:35.501Z,1.10
2018-01-02T04:53:02.990Z,1.27
2018-01-02T04:55:30.510Z,1.30
2018-01-02T04:57:58.006Z,1.70
2018-01-02T05:00:25.521Z,1.23
2018-01-02T05:02:53.015Z,1.30
2018-01-02T05:05:20.505Z,1.10
2018-01-02T05:07:48.782Z,1.40
2018-01-02T05:10:17.034Z,1.20
2018-01-02T05:12:44.547Z,1.30
2018-01-02T05:15:12.042Z,1.10
2018-01-02T05:17:39.553Z,1.20
2018-01-02T05:20:07.044Z,1.23
2018-01-02T05:22:34.554Z,1.37
2018-01-02T05:25:02.806Z,1.40
2018-01-02T05:27:30.318Z,1.10
2018-01-02T05:29:57.807Z,1.43
2018-01-02T05:32:25.302Z,1.40
2018-01-02T05:34:53.588Z,1.30
2018-01-02T05:37:21.079Z,1.43
2018-01-02T05:39:48.595Z,1.17
2018-01-02T05:42:16.850Z,1.30
2018-01-02T05:44:44.362Z,1.20
2018-01-02T05:47:11.855Z,1.20
2018-01-02T05:49:39.371Z,1.40
2018-01-02T05:52:06.857Z,1.93
2018-01-02T05:54:34.366Z,1.73
2018-01-02T05:57:02.626Z,1.33
2018-01-02T05:59:30.886Z,1.40
2018-01-02T06:01:58.397Z,1.67
2018-01-02T06:04:27.094Z,1.27
2018-01-02T06:06:54.621Z,1.20
2018-01-02T06:09:22.883Z,1.40
2018-01-02T06:11:50.394Z,1.10
2018-01-02T06:14:17.890Z,1.33
2018-01-02T06:16:45.420Z,1.20
2018-01-02T06:19:12.918Z,1.40
2018-01-02T06:21:41.207Z,1.60
2018-01-02T06:24:09.471Z,1.67
2018-01-02T06:26:37.730Z,1.50
2018-01-02T06:29:05.246Z,1.40
2018-01-02T06:31:32.742Z,1.50
2018-01-02T06:34:00.267Z,1.60
2018-01-02T06:36:27.761Z,1.80
2018-01-02T06:38:55.275Z,1.93
2018-01-02T06:41:22.766Z,1.43
2018-01-02T06:43:50.278Z,1.83
2018-01-02T06:46:17.766Z,1.70
2018-01-02T06:48:45.258Z,1.40
2018-01-02T06:51:12.777Z,1.40
2018-01-02T06:53:40.270Z,1.50
2018-01-02T06:56:07.783Z,1.33
2018-01-02T06:58:35.286Z,2.20
2018-01-02T07:01:02.799Z,1.57
2018-01-02T07:03:30.297Z,1.30
2018-01-02T07:05:57.806Z,1.10
2018-01-02T07:08:25.302Z,1.43
2018-01-02T07:10:52.814Z,1.20
2018-01-02T07:13:20.314Z,1.20
2018-01-02T07:15:47.801Z,1.40
2018-01-02T07:18:15.314Z,1.43
2018-01-02T07:20:42.810Z,1.50
2018-01-02T07:23:10.323Z,1.70
2018-01-02T07:25:37.818Z,1.30
2018-01-02T07:28:05.334Z,1.77
2018-01-02T07:30:32.830Z,1.50
2018-01-02T07:33:00.346Z,1.37
2018-01-02T07:35:27.840Z,1.40
2018-01-02T07:37:55.362Z,1.47
2018-01-02T07:40:22.859Z,1.50
2018-01-02T07:42:50.350Z,1.60
2018-01-02T07:45:17.866Z,2.20
2018-01-02T07:47:45.358Z,1.43
2018-01-02T07:50:12.870Z,1.20
2018-01-02T07:52:40.363Z,1.40
2018-01-02T07:55:07.884Z,2.10
2018-01-02T07:57:35.374Z,1.90
2018-01-02T08:00:02.862Z,1.90
2018-01-02T08:02:31.142Z,2.20
2018-01-02T08:04:59.398Z,2.60
2018-01-02T08:07:26.915Z,2.17
2018-01-02T08:09:54.410Z,1.57
2018-01-02T08:12:21.926Z,1.80
2018-01-02T08:14:49.415Z,2.10
2018-01-02T08:17:16.950Z,2.10
2018-01-02T08:19:44.442Z,1.83
2018-01-02T08:22:11.938Z,2.23
2018-01-02T08:24:40.219Z,3.03
2018-01-02T08:27:07.714Z,1.77
2018-01-02T08:29:35.242Z,1.70
2018-01-02T08:32:02.732Z,1.57
2018-01-02T08:34:30.222Z,1.63
2018-01-02T08:36:57.734Z,1.50
2018-01-02T08:39:25.222Z,1.80
2018-01-02T08:41:52.746Z,2.47
2018-01-02T08:44:20.242Z,1.80
2018-01-02T08:46:47.735Z,1.50
2018-01-02T08:49:16.014Z,1.73
2018-01-02T08:51:44.270Z,1.47
2018-01-02T08:54:11.786Z,1.63
2018-01-02T08:56:39.273Z,1.70
2018-01-02T08:59:06.785Z,1.27
2018-01-02T09:01:34.277Z,1.37
2018-01-02T09:04:04.388Z,1.30
2018-01-02T09:06:31.917Z,1.43
2018-01-02T09:08:59.414Z,1.47
2018-01-02T09:11:26.926Z,1.83
2018-01-02T09:14:00.019Z,1.50
2018-01-02T09:16:27.534Z,1.50
2018-01-02T09:18:55.022Z,1.57
2018-01-02T09:21:23.306Z,1.83
2018-01-02T09:23:50.798Z,1.80
2018-01-02T09:26:18.290Z,1.57
2018-01-02T09:28:45.810Z,1.50
2018-01-02T09:31:13.302Z,1.60
2018-01-02T09:33:40.817Z,1.60
2018-01-02T09:36:08.311Z,1.60
2018-01-02T09:38:35.830Z,1.40
2018-01-02T09:41:03.326Z,1.83
2018-01-02T09:43:30.842Z,1.70
2018-01-02T09:45:58.345Z,1.40
2018-01-02T09:48:25.867Z,1.40
2018-01-02T09:50:53.367Z,1.67
2018-01-02T09:53:20.928Z,1.27
2018-01-02T09:55:48.498Z,1.30
2018-01-02T09:58:15.998Z,1.20
2018-01-02T10:00:43.510Z,1.60
2018-01-02T10:03:11.002Z,1.77
2018-01-02T10:05:38.518Z,1.80
2018-01-02T10:08:06.015Z,1.87
2018-01-02T10:10:33.531Z,1.30
2018-01-02T10:13:01.026Z,1.30
2018-01-02T10:15:29.314Z,1.30
2018-01-02T10:17:56.802Z,1.23
2018-01-02T10:20:24.294Z,1.60
2018-01-02T10:22:51.814Z,1.80
2018-01-02T10:25:19.315Z,1.60
2018-01-02T10:27:46.831Z,1.40
2018-01-02T10:30:14.331Z,1.70
2018-01-02T10:32:42.623Z,1.57
2018-01-02T10:35:10.134Z,1.40
2018-01-02T10:37:37.648Z,1.80
2018-01-02T10:40:05.907Z,1.40
2018-01-02T10:42:34.166Z,1.60
2018-01-02T10:45:01.686Z,1.30
2018-01-02T10:47:29.178Z,2.30
2018-01-02T10:49:56.690Z,1.20
2018-01-02T10:52:24.181Z,1.40
2018-01-02T10:54:51.703Z,1.40
2018-01-02T10:57:19.202Z,1.20
2018-01-02T10:59:46.722Z,1.67
2018-01-02T11:02:14.238Z,1.40
2018-01-02T11:04:41.730Z,1.70
2018-01-02T11:07:09.242Z,1.70
2018-01-02T11:09:36.734Z,1.70
2018-01-02T11:12:05.015Z,1.57
2018-01-02T11:14:39.235Z,1.63
2018-01-02T11:17:06.760Z,1.87
2018-01-02T11:19:34.258Z,1.60
2018-01-02T11:22:01.769Z,1.77
2018-01-02T11:24:29.264Z,1.70
2018-01-02T11:26:57.526Z,1.60
2018-01-02T11:29:25.802Z,1.47
2018-01-02T11:31:54.202Z,1.70
2018-01-02T11:34:21.717Z,1.97
2018-01-02T11:36:49.210Z,1.60
2018-01-02T11:39:17.490Z,1.67
2018-01-02T11:41:45.751Z,1.93
2018-01-02T11:44:14.006Z,1.60
2018-01-02T11:46:41.526Z,1.50
2018-01-02T11:49:09.018Z,2.00
2018-01-02T11:51:36.535Z,1.77
2018-01-02T11:54:04.030Z,1.70
2018-01-02T11:56:31.542Z,1.90
2018-01-02T11:58:59.035Z,1.70
2018-01-02T12:01:26.554Z,2.17
2018-01-02T12:03:54.046Z,2.20
2018-01-02T12:06:21.562Z,2.10
2018-01-02T12:08:49.822Z,1.83
2018-01-02T12:11:18.174Z,1.90
2018-01-02T12:13:45.682Z,2.30
2018-01-02T12:16:13.174Z,1.80
2018-01-02T12:18:40.694Z,2.07
2018-01-02T12:21:08.958Z,1.90
2018-01-02T12:23:37.238Z,1.70
2018-01-02T12:26:05.490Z,1.50
2018-01-02T12:28:33.006Z,2.13
2018-01-02T12:31:01.297Z,1.50
2018-01-02T12:33:28.798Z,1.50
2018-01-02T12:35:57.082Z,2.03
2018-01-02T12:38:25.346Z,1.83
2018-01-02T12:40:52.862Z,1.60
2018-01-02T12:43:20.359Z,1.40
2018-01-02T12:45:47.879Z,1.97
2018-01-02T12:48:15.378Z,1.67
2018-01-02T12:50:42.951Z,1.63
2018-01-02T12:53:10.423Z,1.60
2018-01-02T12:55:37.942Z,1.53
2018-01-02T12:58:05.430Z,1.43
2018-01-02T13:00:33.690Z,1.63
2018-01-02T13:03:01.206Z,1.33
2018-01-02T13:05:28.698Z,1.60
2018-01-02T13:07:56.207Z,1.60
2018-01-02T13:10:23.702Z,1.70
2018-01-02T13:12:51.991Z,1.60
2018-01-02T13:15:19.482Z,1.67
2018-01-02T13:17:47.007Z,1.50
2018-01-02T13:20:14.498Z,1.90
2018-01-02T13:22:42.754Z,1.50
2018-01-02T13:25:10.271Z,1.30
2018-01-02T13:27:37.762Z,1.50
2018-01-02T13:30:05.278Z,1.30
2018-01-02T13:32:32.766Z,1.60
2018-01-02T13:35:00.279Z,1.70
2018-01-02T13:37:27.774Z,1.30
2018-01-02T13:39:55.290Z,1.47
2018-01-02T13:42:22.783Z,1.50
2018-01-02T13:44:50.278Z,1.30
2018-01-02T13:47:17.794Z,1.50
2018-01-02T13:49:45.282Z,1.33
2018-01-02T13:52:12.791Z,1.30
2018-01-02T13:54:40.286Z,1.00
2018-01-02T13:57:07.797Z,1.30
2018-01-02T13:59:35.291Z,1.20
2018-01-02T14:02:02.807Z,2.50
2018-01-02T14:04:30.309Z,1.40
2018-01-02T14:06:57.826Z,1.50
2018-01-02T14:09:25.318Z,1.10
2018-01-02T14:11:52.810Z,1.50
2018-01-02T14:14:20.326Z,1.50
2018-01-02T14:16:47.821Z,1.30
2018-01-02T14:19:15.338Z,1.73
2018-01-02T14:21:42.834Z,1.30
2018-01-02T14:24:10.354Z,1.50
2018-01-02T14:26:37.841Z,1.40
2018-01-02T14:29:05.358Z,1.30
2018-01-02T14:31:32.850Z,1.30
2018-01-02T14:34:00.341Z,1.20
2018-01-02T14:36:27.858Z,1.40
2018-01-02T14:38:55.345Z,1.20
2018-01-02T14:41:22.857Z,1.40
2018-01-02T14:43:50.346Z,1.30
2018-01-02T14:46:18.630Z,1.00
2018-01-02T14:48:46.161Z,0.97
2018-01-02T14:51:13.663Z,1.10
2018-01-02T14:53:41.150Z,1.13
2018-01-02T14:56:08.644Z,1.20
2018-01-02T14:58:36.158Z,1.47
2018-01-02T15:01:04.420Z,1.17
2018-01-02T15:03:31.939Z,1.40
2018-01-02T15:05:59.431Z,1.20
2018-01-02T15:08:26.943Z,1.10
2018-01-02T15:10:54.439Z,1.40
2018-01-02T15:13:21.930Z,1.13
2018-01-02T15:15:50.206Z,1.27
2018-01-02T15:18:18.466Z,1.20
2018-01-02T15:20:46.750Z,1.50
2018-01-02T15:23:15.010Z,1.60
2018-01-02T15:25:42.526Z,1.33
2018-01-02T15:28:10.019Z,1.30
2018-01-02T15:30:37.539Z,1.70
2018-01-02T15:33:05.026Z,1.40
2018-01-02T15:35:32.514Z,1.47
2018-01-02T15:38:00.798Z,1.80
2018-01-02T15:40:29.059Z,1.80
2018-01-02T15:42:56.570Z,1.83
2018-01-02T15:45:24.063Z,1.60
2018-01-02T15:47:51.578Z,1.60
2018-01-02T15:50:19.070Z,1.50
2018-01-02T15:52:46.582Z,1.87
2018-01-02T15:55:14.080Z,1.70
2018-01-02T15:57:41.583Z,1.40
2018-01-02T16:00:09.866Z,2.10
2018-01-02T16:02:38.134Z,2.00
2018-01-02T16:05:07.154Z,1.80
2018-01-02T16:07:34.646Z,1.70
2018-01-02T16:10:02.168Z,1.60
2018-01-02T16:12:29.661Z,7.70
2018-01-02T16:14:57.175Z,2.33
2018-01-02T16:17:24.666Z,3.17
2018-01-02T16:19:52.182Z,2.60
2018-01-02T16:22:20.448Z,2.87
2018-01-02T16:24:48.705Z,2.63
2018-01-02T16:27:16.222Z,2.60
2018-01-02T16:29:43.721Z,2.47
2018-01-02T16:32:11.238Z,3.10
2018-01-02T16:34:38.743Z,2.13
2018-01-02T16:37:06.271Z,1.97
2018-01-02T16:39:33.766Z,2.77
2018-01-02T16:42:01.277Z,2.13
2018-01-02T16:44:28.774Z,2.10
2018-01-02T16:46:56.286Z,2.40
2018-01-02T16:49:23.774Z,3.00
2018-01-02T16:51:52.054Z,2.53
2018-01-02T16:54:19.570Z,2.10
2018-01-02T16:56:47.061Z,2.27
2018-01-02T16:59:14.578Z,2.83
2018-01-02T17:01:42.066Z,2.60
2018-01-02T17:04:09.575Z,2.23
2018-01-02T17:06:37.834Z,2.80
2018-01-02T17:09:05.349Z,2.30
2018-01-02T17:11:32.842Z,2.77
2018-01-02T17:14:00.330Z,2.53
2018-01-02T17:16:28.610Z,2.50
2018-01-02T17:18:56.870Z,2.47
2018-01-02T17:21:25.154Z,2.43
2018-01-02T17:23:53.423Z,3.30
2018-01-02T17:26:21.706Z,2.87
2018-01-02T17:28:49.961Z,3.73
2018-01-02T17:31:17.482Z,3.03
2018-01-02T17:33:44.978Z,3.20
2018-01-02T17:36:12.528Z,3.50
2018-01-02T17:38:40.006Z,2.90
2018-01-02T17:41:07.503Z,3.23
2018-01-02T17:43:35.019Z,3.07
2018-01-02T17:46:02.561Z,3.67
2018-01-02T17:48:30.059Z,3.70
2018-01-02T17:50:58.326Z,3.87
2018-01-02T17:53:26.610Z,3.40
2018-01-02T17:55:54.862Z,3.90
2018-01-02T17:58:22.350Z,4.30
2018-01-02T18:00:50.626Z,3.37
2018-01-02T18:03:18.882Z,3.80
2018-01-02T18:05:46.398Z,3.50
2018-01-02T18:08:13.890Z,3.80
2018-01-02T18:10:41.406Z,3.17
2018-01-02T18:13:08.894Z,2.80
2018-01-02T18:15:36.411Z,4.30
2018-01-02T18:18:03.918Z,5.23
2018-01-02T18:20:31.439Z,3.40
2018-01-02T18:22:58.930Z,3.07
2018-01-02T18:25:26.426Z,3.30
2018-01-02T18:27:54.705Z,3.90
2018-01-02T18:30:22.203Z,3.53
2018-01-02T18:32:49.718Z,3.00
2018-01-02T18:35:17.978Z,3.57
2018-01-02T18:37:46.258Z,3.50
2018-01-02T18:40:14.513Z,3.90
2018-01-02T18:42:42.030Z,3.57
2018-01-02T18:45:09.522Z,2.70
2018-01-02T18:47:37.043Z,3.23
2018-01-02T18:50:04.542Z,4.27
2018-01-02T18:52:32.030Z,5.10
2018-01-02T18:55:00.317Z,4.10
2018-01-02T18:57:27.820Z,3.40
2018-01-02T18:59:55.346Z,3.70
2018-01-02T19:02:22.842Z,3.73
2018-01-02T19:04:50.359Z,3.97
2018-01-02T19:07:17.853Z,3.40
2018-01-02T19:09:45.370Z,4.70
2018-01-02T19:12:12.858Z,3.53
2018-01-02T19:14:40.374Z,4.43
2018-01-02T19:17:08.907Z,4.03
2018-01-02T19:19:36.398Z,5.23
2018-01-02T19:22:03.944Z,3.10
2018-01-02T19:24:31.433Z,4.00
2018-01-02T19:26:59.719Z,4.83
2018-01-02T19:29:27.218Z,4.90
2018-01-02T19:31:54.770Z,4.20
2018-01-02T19:34:22.263Z,3.80
2018-01-02T19:36:49.781Z,3.37
2018-01-02T19:39:17.279Z,3.93
2018-01-02T19:41:44.798Z,3.87
2018-01-02T19:44:12.294Z,4.17
2018-01-02T19:46:39.786Z,3.80
2018-01-02T19:49:07.302Z,3.70
2018-01-02T19:51:34.798Z,3.53
2018-01-02T19:54:03.083Z,3.60
2018-01-02T19:56:30.581Z,3.30
2018-01-02T19:58:58.098Z,4.30
2018-01-02T20:01:25.585Z,3.80
2018-01-02T20:03:53.101Z,4.40
2018-01-02T20:06:21.362Z,4.50
2018-01-02T20:08:48.859Z,3.30
2018-01-02T20:11:16.374Z,3.70
2018-01-02T20:13:43.861Z,4.10
2018-01-02T20:16:12.138Z,5.50
2018-01-02T20:18:41.382Z,4.00
2018-01-02T20:21:08.898Z,4.40
2018-01-02T20:23:36.394Z,4.60
2018-01-02T20:26:03.910Z,4.30
2018-01-02T20:28:31.410Z,3.90
2018-01-02T20:30:58.937Z,4.30
2018-01-02T20:33:26.430Z,4.40
2018-01-02T20:35:53.926Z,3.90
2018-01-02T20:38:22.212Z,12.33
2018-01-02T20:40:50.477Z,4.10
2018-01-02T20:43:18.766Z,4.27
2018-01-02T20:45:47.031Z,3.90
2018-01-02T20:48:15.310Z,3.80
2018-01-02T20:50:43.573Z,3.80
2018-01-02T20:53:11.070Z,3.90
2018-01-02T20:55:38.590Z,3.07
2018-01-02T20:58:06.086Z,3.70
2018-01-02T21:00:33.606Z,3.50
2018-01-02T21:03:01.094Z,3.33
2018-01-02T21:05:28.609Z,3.80
2018-01-02T21:07:56.106Z,3.57
2018-01-02T21:10:24.391Z,3.70
2018-01-02T21:12:51.887Z,3.40
2018-01-02T21:15:20.146Z,3.20
2018-01-02T21:17:47.671Z,3.50
2018-01-02T21:20:15.922Z,3.70
2018-01-02T21:22:43.442Z,3.40
2018-01-02T21:25:10.934Z,3.30
2018-01-02T21:27:38.450Z,3.70
2018-01-02T21:30:05.938Z,3.43
2018-01-02T21:32:33.451Z,3.40
2018-01-02T21:35:00.945Z,3.67
2018-01-02T21:37:28.442Z,3.80
2018-01-02T21:39:56.722Z,3.40
2018-01-02T21:42:24.990Z,3.47
2018-01-02T21:44:52.502Z,3.13
2018-01-02T21:47:19.999Z,3.23
2018-01-02T21:49:47.526Z,4.00
2018-01-02T21:52:15.013Z,3.03
2018-01-02T21:54:42.526Z,4.30
2018-01-02T21:57:10.019Z,3.90
2018-01-02T21:59:37.530Z,3.70
2018-01-02T22:02:05.026Z,3.90
2018-01-02T22:04:32.557Z,3.70
2018-01-02T22:07:00.059Z,4.03
2018-01-02T22:09:27.559Z,6.70
2018-01-02T22:11:55.077Z,4.20
2018-01-02T22:14:22.575Z,4.70
2018-01-02T22:16:50.094Z,4.70
2018-01-02T22:19:17.586Z,3.50
2018-01-02T22:21:45.874Z,3.20
2018-01-02T22:24:13.370Z,4.20
2018-01-02T22:26:40.906Z,5.50
2018-01-02T22:29:08.398Z,4.60
2018-01-02T22:31:35.886Z,3.73
2018-01-02T22:34:04.162Z,3.90
2018-01-02T22:36:32.422Z,3.70
2018-01-02T22:38:59.934Z,3.23
2018-01-02T22:41:27.430Z,3.20
2018-01-02T22:43:54.946Z,3.57
2018-01-02T22:46:22.438Z,2.83
2018-01-02T22:48:49.962Z,3.90
2018-01-02T22:51:17.450Z,2.70
2018-01-02T22:53:44.971Z,3.47
2018-01-02T22:56:12.465Z,3.50
2018-01-02T22:58:39.958Z,3.67
2018-01-02T23:01:08.243Z,2.80
2018-01-02T23:03:36.502Z,3.07
2018-01-02T23:06:04.022Z,3.73
2018-01-02T23:08:31.523Z,3.07
2018-01-02T23:10:59.805Z,3.00
2018-01-02T23:13:28.071Z,3.07
2018-01-02T23:15:55.562Z,3.43
2018-01-02T23:18:23.075Z,2.70
2018-01-02T23:20:50.579Z,3.17
2018-01-02T23:23:18.098Z,2.60
2018-01-02T23:25:45.589Z,3.13
2018-01-02T23:28:13.111Z,3.00
2018-01-02T23:30:40.634Z,3.10
2018-01-02T23:33:08.170Z,2.57
2018-01-02T23:35:35.674Z,2.33
2018-01-02T23:38:03.178Z,2.13
2018-01-02T23:40:31.490Z,2.70
2018-01-02T23:42:58.984Z,2.33
2018-01-02T23:45:26.498Z,2.37
2018-01-02T23:47:53.995Z,2.83
2018-01-02T23:50:21.514Z,2.30
2018-01-02T23:52:49.022Z,1.93
2018-01-02T23:55:16.510Z,2.30
2018-01-02T23:57:44.027Z,2.50
